createdAt,value
2023-02-24T00:15:34.972Z,3.228
2023-02-24T00:31:17.816Z,3.228
2023-02-24T00:47:00.531Z,3.228
2023-02-24T01:02:42.889Z,3.227
2023-02-24T01:18:25.473Z,3.227
2023-02-24T01:34:08.069Z,3.223
2023-02-24T01:49:51.262Z,3.223
2023-02-24T02:05:34.178Z,3.221
2023-02-24T02:21:16.473Z,3.22
2023-02-24T02:36:59.120Z,3.221
2023-02-24T02:52:41.166Z,3.22
2023-02-24T03:08:23.710Z,3.213
2023-02-24T03:24:06.333Z,3.213
2023-02-24T03:39:49.349Z,3.213
2023-02-24T03:55:31.698Z,3.213
2023-02-24T04:11:13.962Z,3.212
2023-02-24T04:26:56.628Z,3.213
2023-02-24T04:58:22.748Z,3.212
2023-02-24T05:14:05.500Z,3.212
2023-02-24T05:45:31.165Z,3.21
2023-02-24T06:01:13.845Z,3.212
2023-02-24T06:16:56.083Z,3.212
2023-02-24T06:32:39.029Z,3.212
2023-02-24T06:48:21.427Z,3.212
2023-02-24T07:04:04.361Z,3.213
2023-02-24T07:19:47.370Z,3.221
2023-02-24T07:35:29.743Z,3.223
2023-02-24T07:51:12.468Z,3.224
2023-02-24T08:22:37.832Z,3.236
2023-02-24T08:38:20.659Z,3.236
2023-02-24T09:25:29.069Z,3.274
2023-02-24T09:41:12.137Z,3.283
2023-02-24T10:28:19.262Z,3.282
2023-02-24T10:44:02.211Z,3.271
2023-02-24T11:15:27.229Z,3.256
2023-02-24T11:46:53.333Z,3.293
2023-02-24T12:02:35.904Z,3.326
2023-02-24T12:18:18.330Z,3.297
2023-02-24T12:34:00.580Z,3.289
2023-02-24T12:49:42.786Z,3.279
2023-02-24T13:05:25.016Z,3.274
2023-02-24T13:21:08.125Z,3.268
2023-02-24T13:36:51.279Z,3.263
2023-02-24T13:52:33.784Z,3.259
2023-02-24T14:08:16.892Z,3.254
2023-02-24T14:23:59.081Z,3.256
2023-02-24T14:39:42.342Z,3.252
2023-02-24T14:55:25.073Z,3.249
2023-02-24T15:11:07.737Z,3.246
2023-02-24T16:49:12.571Z,3.246
2023-02-24T17:04:54.930Z,3.243
2023-02-24T17:20:38.024Z,3.241
2023-02-24T17:21:25.447Z,3.234
2023-02-24T17:52:50.873Z,3.235
2023-02-24T18:08:33.742Z,3.232
2023-02-24T18:24:16.755Z,3.236
2023-02-24T18:39:59.906Z,3.231
2023-02-24T18:55:42.758Z,3.231
2023-02-24T19:11:24.993Z,3.229
2023-02-24T19:27:07.853Z,3.228
2023-02-24T19:42:50.585Z,3.228
2023-02-24T19:58:33.205Z,3.228
2023-02-24T20:14:15.423Z,3.228
2023-02-24T21:01:23.861Z,3.227
2023-02-24T21:17:06.656Z,3.227
2023-02-24T21:32:48.907Z,3.228
2023-02-24T21:48:31.901Z,3.228
2023-02-24T22:04:14.676Z,3.228
2023-02-24T22:19:57.415Z,3.227
2023-02-24T22:35:39.914Z,3.227
2023-02-24T22:51:22.516Z,3.225
2023-02-24T23:22:47.356Z,3.224
2023-02-24T23:38:30.149Z,3.224
2023-02-24T23:54:26.930Z,3.223
